Aérodrome :
LOGIN :

S'inscrire | Disclaimer

   EN    FR    IT 

 










Légende :    VFR   VFR Marginal   IFR   IFR Intensif   IFR Très Intensif
Visi : 
Plafond : 
>= 8 km
>= 3000ft
5 à 8 km
1000 à 3000 ft
1500m à 5 km
500 à 1000 ft
800 à 1500m
200 à 500 ft
< 800m
< 200 ft
Symboles :   Orages  Brouillard  Fortes neiges  Fortes précipitations  Vent > 20 kt
SIGMETs :   Divers  Orages  Givrage  Turbulence  Onde Orograph.  Cendres Volcan.







- Altitude de l'aérodrome : 1768 ft


LEHC - Huesca Pirineos

DERNIER METAR :
  • 280730Z AUTO 27003KT 9999 NCD 06/02 Q1010

METARs EXPIRÉS :
  • 280700Z AUTO 28006KT 9999 NCD 04/01 Q1009
  • 280630Z AUTO 25004KT 9999 NCD 04/01 Q1009
  • 280600Z AUTO 24006KT 9999 NCD 05/01 Q1009
  • 280530Z AUTO 27008KT 9999 NCD 06/02 Q1009
  • 280500Z AUTO 26008KT 9999 NCD 05/01 Q1009
  • 280430Z AUTO 24007KT 9999 NCD 06/01 Q1009

TAF TAF LEHC
Valide du 28 à 03h jusqu'au 01 à 03h UTC


280200Z 2803/0103 VRB04KT 9999 FEW040 TX15/2814Z TN05/2806Z
BECMG 2809/2812 28016KT
TEMPO 2812/2817 30022G34KT
BECMG 2821/2824 29007KT
Pas de NOTAMs connus pour ce terrain.
1 SIGMET publié pour la FIR Madrid (LECM) :
 
Turbulence forte
LECM SIGMET 2 VALID 280600/281000 LEVA
LECM MADRID FIR SEV TURB FCST N OF LINE N4350 W008 - N4330 W00230 SFC/FL060 STNR NC=



MET'MAP, la Météo Aéronautique d'un coup d'oeil ! - Copyright ORBIFLY Décembre 2007 - Disclaimer

ORBIFLY MET'MAP TEAM :

Programmation & Développement : Alexandra Zaïnal
Conception & Développement : Baudouin d'Aumeries
Co-Programmation & Développement : Marc-Olivier Méhu
Soutien technique & logistique : Manuel Goepfert

Contact : metmap@orbifly.com




SOURCES & CREDITS :

   NOAA